Time;durP1;ratioP1;P1;durP2;ratioP2;P2;SDS_P1;SDS_P2;PMS_P1;PMS_P2;Temp;Humidity;BMP_temperature;BMP_pressure;BME280_temperature;BME280_humidity;BME280_pressure;Samples;Min_cycle;Max_cycle;Signal;HPM_P1;HPM_P2
2023/10/19 00:01:25;;;;;;;11.27;7.55;;;;;;;;;;5031726;28;20029;-63
2023/10/19 00:03:55;;;;;;;15.32;8.20;;;;;;;;;;5037604;28;20040;-64
2023/10/19 00:06:23;;;;;;;11.27;7.30;;;;;;;;;;5021772;28;20501;-63
2023/10/19 00:08:52;;;;;;;13.50;7.65;;;;;;;;;;5021905;28;20048;-63
2023/10/19 00:11:22;;;;;;;11.35;7.25;;;;;;;;;;5020189;28;20030;-64
2023/10/19 00:13:54;;;;;;;16.38;7.85;;;;;;;;;;5024934;28;20029;-63
2023/10/19 00:16:28;;;;;;;13.80;6.50;;;;;;;;;;5019008;28;20041;-63
2023/10/19 00:18:59;;;;;;;9.57;6.37;;;;;;;;;;5019203;28;20037;-63
2023/10/19 00:21:26;;;;;;;9.88;6.32;;;;;;;;;;5024857;28;20481;-63
2023/10/19 00:24:04;;;;;;;12.07;7.07;;;;;;;;;;5024684;28;20409;-63
2023/10/19 00:26:31;;;;;;;10.52;6.38;;;;;;;;;;5025133;28;20053;-63
2023/10/19 00:28:57;;;;;;;12.20;8.02;;;;;;;;;;5029647;28;20429;-63
2023/10/19 00:31:27;;;;;;;12.50;7.07;;;;;;;;;;5022715;28;20103;-62
2023/10/19 00:33:57;;;;;;;9.82;7.07;;;;;;;;;;5021786;28;20489;-63
2023/10/19 00:36:25;;;;;;;12.38;6.93;;;;;;;;;;5013687;28;20025;-63
2023/10/19 00:38:56;;;;;;;13.18;7.65;;;;;;;;;;5025749;28;20029;-63
2023/10/19 00:41:29;;;;;;;15.00;6.82;;;;;;;;;;5023834;28;20039;-63
2023/10/19 00:44:10;;;;;;;15.25;8.65;;;;;;;;;;5035781;28;20025;-63
2023/10/19 00:46:43;;;;;;;9.48;6.20;;;;;;;;;;5015333;28;20026;-63
2023/10/19 00:49:12;;;;;;;9.30;5.85;;;;;;;;;;5023639;28;20029;-63
2023/10/19 00:52:11;;;;;;;11.02;7.35;;;;;;;;;;5019585;28;20481;-63
2023/10/19 00:54:58;;;;;;;10.00;6.10;;;;;;;;;;5024093;28;20041;-63
2023/10/19 00:57:35;;;;;;;8.45;5.90;;;;;;;;;;5021682;28;20079;-64
2023/10/19 01:00:21;;;;;;;10.90;6.68;;;;;;;;;;5016549;28;20052;-63
2023/10/19 01:02:51;;;;;;;9.40;6.13;;;;;;;;;;5019836;28;20421;-63
2023/10/19 01:05:21;;;;;;;12.05;5.60;;;;;;;;;;5018200;28;20037;-63
2023/10/19 01:07:56;;;;;;;12.68;6.82;;;;;;;;;;5026268;28;20025;-63
2023/10/19 01:10:23;;;;;;;10.07;5.50;;;;;;;;;;5022322;28;20025;-63
2023/10/19 01:12:50;;;;;;;11.18;5.50;;;;;;;;;;5022973;28;20025;-66
2023/10/19 01:15:18;;;;;;;8.10;5.47;;;;;;;;;;5021137;28;20029;-63
2023/10/19 01:17:45;;;;;;;9.73;5.68;;;;;;;;;;5023567;28;20116;-62
2023/10/19 01:20:23;;;;;;;7.45;5.03;;;;;;;;;;5020205;28;20021;-62
2023/10/19 01:23:20;;;;;;;9.57;4.53;;;;;;;;;;5011463;28;20041;-63
2023/10/19 01:26:27;;;;;;;8.20;4.40;;;;;;;;;;5020124;28;20302;-63
2023/10/19 01:31:15;;;;;;;6.75;4.22;;;;;;;;;;5010250;28;20112;-63
2023/10/19 01:33:41;;;;;;;6.22;4.07;;;;;;;;;;5021743;28;20033;-62
2023/10/19 01:36:12;;;;;;;6.65;4.20;;;;;;;;;;5023845;28;20033;-63
2023/10/19 01:38:41;;;;;;;6.30;4.47;;;;;;;;;;5025467;28;20083;-63
2023/10/19 01:41:42;;;;;;;5.32;4.15;;;;;;;;;;5026000;28;20029;-63
2023/10/19 01:44:12;;;;;;;6.65;4.10;;;;;;;;;;5021568;28;20409;-62
2023/10/19 01:46:38;;;;;;;11.02;4.60;;;;;;;;;;5020983;28;20493;-63
2023/10/19 01:49:05;;;;;;;6.07;4.50;;;;;;;;;;5025004;28;20030;-63
2023/10/19 01:51:43;;;;;;;8.82;4.38;;;;;;;;;;5023453;28;20450;-62
2023/10/19 01:54:09;;;;;;;8.25;4.38;;;;;;;;;;5015242;28;20034;-63
2023/10/19 01:56:38;;;;;;;10.43;4.63;;;;;;;;;;5025918;28;20056;-62
2023/10/19 01:59:05;;;;;;;7.93;4.20;;;;;;;;;;5022496;28;20099;-63
2023/10/19 02:01:32;;;;;;;9.27;4.38;;;;;;;;;;5021477;28;20120;-62
2023/10/19 02:04:05;;;;;;;6.03;3.80;;;;;;;;;;5014248;28;20128;-63
2023/10/19 02:06:37;;;;;;;5.07;3.35;;;;;;;;;;5022595;28;20442;-66
2023/10/19 02:11:53;;;;;;;4.15;3.00;;;;;;;;;;5024644;28;20048;-62
2023/10/19 02:14:19;;;;;;;5.97;3.28;;;;;;;;;;5023694;28;20385;-63
2023/10/19 02:16:47;;;;;;;7.18;3.25;;;;;;;;;;5019965;28;20029;-63
2023/10/19 02:19:13;;;;;;;6.53;3.88;;;;;;;;;;5027643;28;20045;-63
2023/10/19 02:21:40;;;;;;;7.22;3.60;;;;;;;;;;5021285;28;20029;-63
2023/10/19 02:24:14;;;;;;;7.72;3.45;;;;;;;;;;5017259;28;20028;-63
2023/10/19 02:26:40;;;;;;;8.45;3.15;;;;;;;;;;5018049;28;20476;-62
2023/10/19 02:29:09;;;;;;;5.65;3.15;;;;;;;;;;5020849;28;20099;-62
2023/10/19 02:31:43;;;;;;;6.00;3.55;;;;;;;;;;5022064;28;20514;-62
2023/10/19 02:34:10;;;;;;;4.95;3.15;;;;;;;;;;5023580;28;20496;-66
2023/10/19 02:36:37;;;;;;;9.40;3.47;;;;;;;;;;5035632;28;20417;-62
2023/10/19 02:39:07;;;;;;;7.25;3.45;;;;;;;;;;5023876;28;20033;-62
2023/10/19 02:41:49;;;;;;;5.35;3.28;;;;;;;;;;5021623;28;20056;-62
2023/10/19 02:46:42;;;;;;;5.43;3.53;;;;;;;;;;5020635;28;20029;-62
2023/10/19 02:49:13;;;;;;;5.03;3.97;;;;;;;;;;5022049;28;20029;-62
2023/10/19 02:51:39;;;;;;;3.60;3.05;;;;;;;;;;5021293;28;20104;-62
2023/10/19 02:54:07;;;;;;;6.57;3.30;;;;;;;;;;5021801;28;20029;-62
2023/10/19 02:56:35;;;;;;;3.58;3.15;;;;;;;;;;5018881;28;20390;-62
2023/10/19 02:59:03;;;;;;;7.40;3.17;;;;;;;;;;5016570;28;20064;-62
2023/10/19 03:01:31;;;;;;;5.55;3.40;;;;;;;;;;5021553;28;20436;-62
2023/10/19 03:04:01;;;;;;;4.32;3.17;;;;;;;;;;5012408;28;20511;-62
2023/10/19 03:06:34;;;;;;;11.10;4.75;;;;;;;;;;5019166;28;20032;-62
2023/10/19 03:09:13;;;;;;;4.13;2.92;;;;;;;;;;5020163;28;20029;-62
2023/10/19 03:11:42;;;;;;;4.32;2.83;;;;;;;;;;5010128;28;20032;-62
2023/10/19 03:14:09;;;;;;;5.07;3.20;;;;;;;;;;5023170;28;20116;-62
2023/10/19 03:16:42;;;;;;;5.28;3.10;;;;;;;;;;5017966;28;20029;-64
2023/10/19 03:19:08;;;;;;;6.97;3.20;;;;;;;;;;5023039;28;20537;-62
2023/10/19 03:21:44;;;;;;;4.22;3.28;;;;;;;;;;5017086;28;20034;-62
2023/10/19 03:24:14;;;;;;;5.63;3.05;;;;;;;;;;5021167;28;20267;-62
2023/10/19 03:26:48;;;;;;;4.60;3.38;;;;;;;;;;5020371;28;20045;-62
2023/10/19 03:29:15;;;;;;;5.43;3.03;;;;;;;;;;5022931;28;20025;-62
2023/10/19 03:31:45;;;;;;;5.90;3.08;;;;;;;;;;5019687;28;20026;-63
2023/10/19 03:34:12;;;;;;;5.55;2.90;;;;;;;;;;5024571;28;20041;-63
2023/10/19 03:36:39;;;;;;;5.57;3.13;;;;;;;;;;5025345;28;20120;-62
2023/10/19 03:39:12;;;;;;;5.78;3.60;;;;;;;;;;5028091;28;20512;-62
2023/10/19 03:41:41;;;;;;;5.22;3.10;;;;;;;;;;5025696;28;20032;-63
2023/10/19 03:44:13;;;;;;;6.70;3.30;;;;;;;;;;5030554;28;20121;-67
2023/10/19 03:46:52;;;;;;;7.18;3.53;;;;;;;;;;5020604;28;20029;-61
2023/10/19 03:49:19;;;;;;;7.95;4.85;;;;;;;;;;5024980;28;20028;-62
2023/10/19 03:51:58;;;;;;;6.18;3.33;;;;;;;;;;5023313;28;20455;-71
2023/10/19 03:54:28;;;;;;;5.20;3.30;;;;;;;;;;5022135;28;20037;-61
2023/10/19 03:56:57;;;;;;;4.70;3.25;;;;;;;;;;5024428;28;20124;-65
2023/10/19 03:59:29;;;;;;;4.82;3.55;;;;;;;;;;5024964;28;20041;-62
2023/10/19 04:01:55;;;;;;;4.45;2.97;;;;;;;;;;5021903;28;20473;-63
2023/10/19 04:04:22;;;;;;;6.03;3.42;;;;;;;;;;5026993;28;20057;-62
2023/10/19 04:06:49;;;;;;;4.50;3.25;;;;;;;;;;5023859;28;20024;-62
2023/10/19 04:09:18;;;;;;;5.13;3.90;;;;;;;;;;5026523;28;20030;-62
2023/10/19 04:11:48;;;;;;;6.13;3.42;;;;;;;;;;5022465;28;20812;-62
2023/10/19 04:14:18;;;;;;;5.82;3.33;;;;;;;;;;5023026;28;20432;-61
2023/10/19 04:16:44;;;;;;;5.50;3.38;;;;;;;;;;5023090;28;20053;-61
2023/10/19 04:19:11;;;;;;;7.55;3.72;;;;;;;;;;5021957;28;20037;-62
2023/10/19 04:21:43;;;;;;;7.85;3.95;;;;;;;;;;5013678;28;20037;-62
2023/10/19 04:24:10;;;;;;;6.03;3.20;;;;;;;;;;5017970;28;20026;-62
2023/10/19 04:26:37;;;;;;;7.57;3.40;;;;;;;;;;5023552;28;20556;-62
2023/10/19 04:29:11;;;;;;;4.57;3.55;;;;;;;;;;5021029;28;20025;-61
2023/10/19 04:31:49;;;;;;;6.70;3.88;;;;;;;;;;5016702;28;20123;-62
2023/10/19 04:34:20;;;;;;;4.43;3.47;;;;;;;;;;5020944;28;20032;-62
2023/10/19 04:36:46;;;;;;;7.03;3.75;;;;;;;;;;5024676;28;20026;-62
2023/10/19 04:39:13;;;;;;;5.57;3.65;;;;;;;;;;5025044;28;20048;-61
2023/10/19 04:41:44;;;;;;;5.13;3.58;;;;;;;;;;5021604;28;20053;-62
2023/10/19 04:44:10;;;;;;;6.97;3.72;;;;;;;;;;5014821;28;20029;-62
2023/10/19 04:46:36;;;;;;;7.38;4.03;;;;;;;;;;5015209;28;20037;-62
2023/10/19 04:49:06;;;;;;;7.07;4.20;;;;;;;;;;5019564;28;20337;-63
2023/10/19 04:51:33;;;;;;;7.32;4.20;;;;;;;;;;5019116;28;20034;-64
2023/10/19 04:53:59;;;;;;;6.90;4.22;;;;;;;;;;5015522;28;20030;-62
2023/10/19 04:56:25;;;;;;;8.95;3.97;;;;;;;;;;5021437;28;20055;-63
2023/10/19 04:58:52;;;;;;;8.02;5.05;;;;;;;;;;5017143;28;20041;-62
2023/10/19 05:01:18;;;;;;;6.47;4.50;;;;;;;;;;5013717;28;20091;-62
2023/10/19 05:03:44;;;;;;;8.02;4.00;;;;;;;;;;5018521;28;20026;-62
2023/10/19 05:06:11;;;;;;;17.10;4.68;;;;;;;;;;5015893;28;20027;-62
2023/10/19 05:08:37;;;;;;;6.53;4.00;;;;;;;;;;5019161;28;20029;-62
2023/10/19 05:11:03;;;;;;;8.32;4.65;;;;;;;;;;5018628;28;20560;-62
2023/10/19 05:13:32;;;;;;;7.28;4.55;;;;;;;;;;5018632;28;20030;-63
2023/10/19 05:15:59;;;;;;;7.40;4.40;;;;;;;;;;5017200;28;20025;-62
2023/10/19 05:18:26;;;;;;;6.25;4.43;;;;;;;;;;5016602;28;20037;-61
2023/10/19 05:20:55;;;;;;;7.88;4.07;;;;;;;;;;5020393;28;20029;-62
2023/10/19 05:23:23;;;;;;;8.98;4.35;;;;;;;;;;5013682;28;20033;-62
2023/10/19 05:25:50;;;;;;;7.88;4.88;;;;;;;;;;5014143;28;20552;-62
2023/10/19 05:28:16;;;;;;;7.47;4.00;;;;;;;;;;5018498;28;20228;-62
2023/10/19 05:30:42;;;;;;;9.63;4.38;;;;;;;;;;5017272;28;20039;-62
2023/10/19 05:33:08;;;;;;;7.38;4.15;;;;;;;;;;5018784;28;20048;-65
2023/10/19 05:35:40;;;;;;;7.57;4.45;;;;;;;;;;5015202;28;20429;-62
2023/10/19 05:38:06;;;;;;;7.15;4.60;;;;;;;;;;5013701;28;20067;-62
2023/10/19 05:40:32;;;;;;;9.90;5.03;;;;;;;;;;5019686;28;20467;-62
2023/10/19 05:43:00;;;;;;;10.60;5.28;;;;;;;;;;5018910;28;20112;-62
2023/10/19 05:45:27;;;;;;;9.52;5.03;;;;;;;;;;5015563;28;20045;-63
2023/10/19 05:47:54;;;;;;;10.27;4.93;;;;;;;;;;5016172;28;20064;-63
2023/10/19 05:50:20;;;;;;;7.07;4.45;;;;;;;;;;5015320;28;20546;-62
2023/10/19 05:52:48;;;;;;;11.15;5.75;;;;;;;;;;5018777;28;20034;-61
2023/10/19 05:55:14;;;;;;;11.80;4.93;;;;;;;;;;5020722;28;20025;-62
2023/10/19 05:57:41;;;;;;;11.82;5.32;;;;;;;;;;5016880;28;20045;-62
2023/10/19 06:00:13;;;;;;;9.15;5.28;;;;;;;;;;5020662;28;20095;-63
2023/10/19 06:02:43;;;;;;;9.30;5.55;;;;;;;;;;5018544;28;20056;-63
2023/10/19 06:05:09;;;;;;;9.48;5.15;;;;;;;;;;5019092;28;20021;-62
2023/10/19 06:07:36;;;;;;;10.45;5.57;;;;;;;;;;5015808;28;20025;-62
2023/10/19 06:10:04;;;;;;;9.52;5.00;;;;;;;;;;5021017;28;20029;-62
2023/10/19 06:12:34;;;;;;;10.73;5.38;;;;;;;;;;5015671;28;20055;-62
2023/10/19 06:15:00;;;;;;;12.65;6.90;;;;;;;;;;5019666;28;20628;-62
2023/10/19 06:17:27;;;;;;;10.25;4.93;;;;;;;;;;5019436;28;20034;-62
2023/10/19 06:19:55;;;;;;;12.70;6.30;;;;;;;;;;5017525;28;20089;-62
2023/10/19 06:22:21;;;;;;;9.77;4.82;;;;;;;;;;5016750;28;20029;-63
2023/10/19 06:24:47;;;;;;;10.52;5.35;;;;;;;;;;5015065;28;20041;-62
2023/10/19 06:27:13;;;;;;;11.35;5.65;;;;;;;;;;5018048;28;20041;-65
2023/10/19 06:29:39;;;;;;;13.13;5.78;;;;;;;;;;5020031;28;20116;-62
2023/10/19 06:32:05;;;;;;;11.55;5.53;;;;;;;;;;5017803;28;20229;-62
2023/10/19 06:34:32;;;;;;;10.75;5.38;;;;;;;;;;5015961;28;20571;-62
2023/10/19 06:36:59;;;;;;;13.88;5.57;;;;;;;;;;5018442;28;20540;-62
2023/10/19 06:39:25;;;;;;;12.38;5.38;;;;;;;;;;5017426;28;20484;-62
2023/10/19 06:41:51;;;;;;;11.93;5.32;;;;;;;;;;5020131;28;20025;-62
2023/10/19 06:44:19;;;;;;;13.10;5.70;;;;;;;;;;5015853;28;20135;-62
2023/10/19 06:46:46;;;;;;;11.27;5.07;;;;;;;;;;5018918;28;20383;-62
2023/10/19 06:49:12;;;;;;;14.85;6.18;;;;;;;;;;5011977;28;20370;-62
2023/10/19 06:51:38;;;;;;;10.90;5.45;;;;;;;;;;5017213;28;20490;-62
2023/10/19 06:54:05;;;;;;;14.35;6.03;;;;;;;;;;5014511;28;20430;-62
2023/10/19 06:56:32;;;;;;;15.25;6.40;;;;;;;;;;5021774;28;20041;-62
2023/10/19 06:58:59;;;;;;;16.98;6.00;;;;;;;;;;5014934;28;20455;-62
2023/10/19 07:01:29;;;;;;;11.27;5.70;;;;;;;;;;5017494;28;20119;-62
2023/10/19 07:03:56;;;;;;;9.27;5.30;;;;;;;;;;5015380;28;20386;-62
2023/10/19 07:06:22;;;;;;;12.20;5.35;;;;;;;;;;5011719;28;20030;-63
2023/10/19 07:08:48;;;;;;;12.75;5.70;;;;;;;;;;5018197;28;20044;-62
2023/10/19 07:11:15;;;;;;;14.30;5.95;;;;;;;;;;5018843;28;20156;-62
2023/10/19 07:13:42;;;;;;;16.60;6.45;;;;;;;;;;5016336;28;20029;-63
2023/10/19 07:16:12;;;;;;;12.85;6.45;;;;;;;;;;5016138;28;20033;-62
2023/10/19 07:18:39;;;;;;;13.15;5.70;;;;;;;;;;5013424;28;20080;-62
2023/10/19 07:21:09;;;;;;;13.23;5.93;;;;;;;;;;5019855;28;20037;-62
2023/10/19 07:23:37;;;;;;;11.85;6.28;;;;;;;;;;5016781;28;20450;-62
2023/10/19 07:26:05;;;;;;;14.27;7.03;;;;;;;;;;5018492;28;20166;-62
2023/10/19 07:28:31;;;;;;;11.98;6.00;;;;;;;;;;5017168;28;20030;-62
2023/10/19 07:30:59;;;;;;;12.40;6.07;;;;;;;;;;5016990;28;20037;-62
2023/10/19 07:33:26;;;;;;;14.23;6.15;;;;;;;;;;5018999;28;20026;-62
2023/10/19 07:35:54;;;;;;;13.00;6.43;;;;;;;;;;5016562;28;20509;-62
2023/10/19 07:38:22;;;;;;;16.52;5.97;;;;;;;;;;5017006;28;20120;-62
2023/10/19 07:40:48;;;;;;;10.73;5.80;;;;;;;;;;5014996;28;20036;-62
2023/10/19 07:43:14;;;;;;;9.77;5.50;;;;;;;;;;5012372;28;20021;-62
2023/10/19 07:45:42;;;;;;;9.25;5.38;;;;;;;;;;5015985;28;20029;-61
2023/10/19 07:48:11;;;;;;;9.88;5.47;;;;;;;;;;5012778;28;20029;-61
2023/10/19 07:50:40;;;;;;;8.15;4.82;;;;;;;;;;5013767;28;20037;-61
2023/10/19 07:53:06;;;;;;;10.25;5.45;;;;;;;;;;5016044;28;20394;-62
2023/10/19 07:55:33;;;;;;;10.93;4.65;;;;;;;;;;5018911;28;20393;-61
2023/10/19 07:58:06;;;;;;;8.50;5.13;;;;;;;;;;5013614;28;20720;-62
2023/10/19 08:00:35;;;;;;;8.15;4.93;;;;;;;;;;5015500;28;20554;-62
2023/10/19 08:03:02;;;;;;;7.63;4.88;;;;;;;;;;5017485;28;20033;-62
2023/10/19 08:05:28;;;;;;;8.35;5.40;;;;;;;;;;5014479;28;20045;-62
2023/10/19 08:07:57;;;;;;;12.20;5.50;;;;;;;;;;5017260;28;20037;-66
2023/10/19 08:10:23;;;;;;;16.60;5.35;;;;;;;;;;5013784;28;20025;-61
2023/10/19 08:12:50;;;;;;;8.02;4.55;;;;;;;;;;5014264;28;20033;-61
2023/10/19 08:15:17;;;;;;;7.78;4.75;;;;;;;;;;5017010;28;20034;-62
2023/10/19 08:17:45;;;;;;;6.75;4.13;;;;;;;;;;5014726;28;20117;-62
2023/10/19 08:20:30;;;;;;;6.20;4.53;;;;;;;;;;5015178;28;20026;-62
2023/10/19 08:23:01;;;;;;;8.18;4.60;;;;;;;;;;5011008;28;20032;-62
2023/10/19 08:25:27;;;;;;;9.90;4.55;;;;;;;;;;5018762;28;20041;-62
2023/10/19 08:27:56;;;;;;;7.05;3.60;;;;;;;;;;5002239;28;20786;-65
2023/10/19 08:30:23;;;;;;;6.93;4.00;;;;;;;;;;5018441;28;20025;-62
2023/10/19 08:32:49;;;;;;;5.25;3.67;;;;;;;;;;4995860;28;20532;-60
2023/10/19 08:35:25;;;;;;;6.68;3.47;;;;;;;;;;5013261;28;20037;-61
2023/10/19 08:37:57;;;;;;;5.97;3.85;;;;;;;;;;5027494;28;20064;-62
2023/10/19 08:40:26;;;;;;;5.43;3.30;;;;;;;;;;5013396;28;20116;-60
2023/10/19 08:42:53;;;;;;;4.07;3.10;;;;;;;;;;5016187;28;20794;-61
2023/10/19 08:45:21;;;;;;;3.97;3.10;;;;;;;;;;5015688;28;20041;-61
2023/10/19 08:47:58;;;;;;;7.00;3.08;;;;;;;;;;5013166;28;20025;-61
2023/10/19 08:50:25;;;;;;;5.95;3.30;;;;;;;;;;5013842;28;20029;-62
2023/10/19 08:52:55;;;;;;;4.75;3.22;;;;;;;;;;5012621;28;20033;-61
2023/10/19 08:55:21;;;;;;;4.93;2.95;;;;;;;;;;5016791;28;20040;-62
2023/10/19 08:57:51;;;;;;;4.80;2.97;;;;;;;;;;5016634;28;20637;-60
2023/10/19 09:00:18;;;;;;;4.70;3.35;;;;;;;;;;5017860;28;20167;-61
2023/10/19 09:02:45;;;;;;;4.90;3.20;;;;;;;;;;5013851;28;20033;-63
2023/10/19 09:05:19;;;;;;;5.50;3.63;;;;;;;;;;5012743;28;20037;-61
2023/10/19 09:07:55;;;;;;;6.37;3.47;;;;;;;;;;5017188;28;20067;-61
2023/10/19 09:10:22;;;;;;;5.88;4.05;;;;;;;;;;5010930;28;20659;-62
2023/10/19 09:13:09;;;;;;;4.75;3.53;;;;;;;;;;5018460;28;20030;-62
2023/10/19 09:15:36;;;;;;;7.15;4.25;;;;;;;;;;5015696;28;20029;-63
2023/10/19 09:18:14;;;;;;;6.57;3.20;;;;;;;;;;5017469;28;20154;-62
2023/10/19 09:20:42;;;;;;;5.93;3.72;;;;;;;;;;5018623;28;20040;-62
2023/10/19 09:23:08;;;;;;;5.70;3.63;;;;;;;;;;5011791;28;20703;-62
2023/10/19 09:25:39;;;;;;;5.68;3.88;;;;;;;;;;5013680;28;20060;-62
2023/10/19 09:28:06;;;;;;;4.60;3.28;;;;;;;;;;5015237;28;20862;-63
2023/10/19 09:30:32;;;;;;;6.57;4.28;;;;;;;;;;5014615;28;20304;-64
2023/10/19 09:32:59;;;;;;;7.63;3.50;;;;;;;;;;5010295;28;20064;-62
2023/10/19 09:35:31;;;;;;;5.47;3.38;;;;;;;;;;5015260;28;20635;-62
2023/10/19 09:37:57;;;;;;;5.22;3.20;;;;;;;;;;5012261;28;20052;-62
2023/10/19 09:40:24;;;;;;;9.43;3.80;;;;;;;;;;5015868;28;20038;-61
2023/10/19 09:42:52;;;;;;;5.78;3.50;;;;;;;;;;5015654;28;20650;-62
2023/10/19 09:45:20;;;;;;;4.47;3.00;;;;;;;;;;5013984;28;20044;-61
2023/10/19 09:47:50;;;;;;;6.22;3.40;;;;;;;;;;5013249;28;20390;-61
2023/10/19 09:50:17;;;;;;;5.00;3.10;;;;;;;;;;5013386;28;20075;-61
2023/10/19 09:52:43;;;;;;;5.68;3.10;;;;;;;;;;5013593;28;20022;-62
2023/10/19 09:55:22;;;;;;;6.55;2.97;;;;;;;;;;5012894;28;20026;-66
2023/10/19 09:58:02;;;;;;;4.63;3.50;;;;;;;;;;5011255;28;20112;-62
2023/10/19 10:00:31;;;;;;;4.85;3.30;;;;;;;;;;5011359;28;20492;-62
2023/10/19 10:02:57;;;;;;;4.05;2.92;;;;;;;;;;5013645;28;20033;-62
2023/10/19 10:05:39;;;;;;;3.33;2.70;;;;;;;;;;5013620;28;20026;-62
2023/10/19 10:08:17;;;;;;;4.78;2.80;;;;;;;;;;5013529;28;20764;-62
2023/10/19 10:11:06;;;;;;;4.78;3.20;;;;;;;;;;5009531;28;20030;-65
2023/10/19 10:13:42;;;;;;;4.18;3.25;;;;;;;;;;5012070;28;20571;-61
2023/10/19 10:16:08;;;;;;;3.85;3.08;;;;;;;;;;5014522;28;20316;-61
2023/10/19 10:18:35;;;;;;;4.50;3.00;;;;;;;;;;5014159;28;20040;-63
2023/10/19 10:21:11;;;;;;;6.72;3.40;;;;;;;;;;5015009;28;20053;-61
2023/10/19 10:23:37;;;;;;;;;;;;;;;;;;5010218;28;20052;-61
2023/10/19 10:26:04;;;;;;;5.15;3.10;;;;;;;;;;5014382;28;19913;-61
2023/10/19 10:28:30;;;;;;;5.38;3.15;;;;;;;;;;5013216;28;20029;-61
2023/10/19 10:31:09;;;;;;;5.40;3.08;;;;;;;;;;5013970;28;20756;-62
2023/10/19 10:33:45;;;;;;;5.53;3.10;;;;;;;;;;5012844;28;20564;-62
2023/10/19 10:36:11;;;;;;;4.10;3.08;;;;;;;;;;5012567;28;20234;-61
2023/10/19 10:38:38;;;;;;;4.25;3.25;;;;;;;;;;5013372;28;20068;-62
2023/10/19 10:41:04;;;;;;;4.93;3.35;;;;;;;;;;5012031;28;20091;-62
2023/10/19 10:43:30;;;;;;;5.80;3.20;;;;;;;;;;5011020;28;20457;-62
2023/10/19 10:46:03;;;;;;;4.47;3.03;;;;;;;;;;5011690;28;20026;-62
2023/10/19 10:48:30;;;;;;;5.20;2.90;;;;;;;;;;5026629;28;20037;-62
2023/10/19 10:50:56;;;;;;;4.07;3.30;;;;;;;;;;5011833;28;20065;-62
2023/10/19 10:53:27;;;;;;;3.67;2.92;;;;;;;;;;5009792;28;20033;-63
2023/10/19 10:55:54;;;;;;;5.32;3.05;;;;;;;;;;5011076;28;20045;-61
2023/10/19 10:58:20;;;;;;;4.80;2.53;;;;;;;;;;5011328;28;20030;-62
2023/10/19 11:00:48;;;;;;;4.57;2.58;;;;;;;;;;5009298;28;20068;-62
2023/10/19 11:03:15;;;;;;;3.17;2.55;;;;;;;;;;5009573;28;20056;-62
2023/10/19 11:05:45;;;;;;;3.95;2.58;;;;;;;;;;5009796;28;20565;-61
2023/10/19 11:08:15;;;;;;;3.67;2.70;;;;;;;;;;5010572;28;20446;-61
2023/10/19 11:10:44;;;;;;;5.15;3.60;;;;;;;;;;5011496;28;20033;-61
2023/10/19 11:13:13;;;;;;;4.45;3.05;;;;;;;;;;5008535;28;20564;-61
2023/10/19 11:15:47;;;;;;;3.70;3.28;;;;;;;;;;5013609;28;20312;-61
2023/10/19 11:18:28;;;;;;;3.60;2.65;;;;;;;;;;5012190;28;20033;-61
2023/10/19 11:20:59;;;;;;;3.25;2.72;;;;;;;;;;5011820;28;20036;-61
2023/10/19 11:23:56;;;;;;;3.97;2.20;;;;;;;;;;5013169;28;20033;-61
2023/10/19 11:26:26;;;;;;;3.17;1.90;;;;;;;;;;5016063;28;20603;-61
2023/10/19 11:29:09;;;;;;;3.60;1.90;;;;;;;;;;5012979;28;20521;-61
2023/10/19 11:31:39;;;;;;;3.08;1.90;;;;;;;;;;5011270;28;20760;-62
2023/10/19 11:34:05;;;;;;;4.63;3.15;;;;;;;;;;5014335;28;20033;-61
2023/10/19 11:36:32;;;;;;;4.97;3.10;;;;;;;;;;5011825;28;21741;-62
2023/10/19 11:38:58;;;;;;;5.80;2.70;;;;;;;;;;5009608;28;20049;-63
2023/10/19 11:41:24;;;;;;;8.05;3.05;;;;;;;;;;5009885;28;20038;-63
2023/10/19 11:43:50;;;;;;;4.20;2.53;;;;;;;;;;5011462;28;20037;-65
2023/10/19 11:46:26;;;;;;;3.22;2.38;;;;;;;;;;5009560;28;20430;-62
2023/10/19 11:48:53;;;;;;;1.85;1.75;;;;;;;;;;5012335;28;20080;-63
2023/10/19 11:51:19;;;;;;;2.40;2.03;;;;;;;;;;5009054;28;20074;-62
2023/10/19 11:53:45;;;;;;;3.65;1.90;;;;;;;;;;5012275;28;20535;-62
2023/10/19 11:56:12;;;;;;;2.25;1.90;;;;;;;;;;5009635;28;20030;-62
2023/10/19 11:58:41;;;;;;;2.97;1.98;;;;;;;;;;5013619;28;20060;-61
2023/10/19 12:01:16;;;;;;;2.15;1.60;;;;;;;;;;5016369;28;20034;-62
2023/10/19 12:03:45;;;;;;;1.98;1.60;;;;;;;;;;5014800;28;20386;-62
2023/10/19 12:06:13;;;;;;;2.45;1.60;;;;;;;;;;5014136;28;20025;-62
2023/10/19 12:08:42;;;;;;;2.05;1.42;;;;;;;;;;5013390;28;20037;-62
2023/10/19 12:11:18;;;;;;;1.92;1.40;;;;;;;;;;5005394;28;20546;-62
2023/10/19 12:13:45;;;;;;;2.30;1.60;;;;;;;;;;5012848;28;20116;-62
2023/10/19 12:16:15;;;;;;;2.78;1.60;;;;;;;;;;5017086;28;20026;-62
2023/10/19 12:18:42;;;;;;;4.78;1.80;;;;;;;;;;5013156;28;20072;-63
2023/10/19 12:21:11;;;;;;;1.98;1.60;;;;;;;;;;5013006;28;20034;-63
2023/10/19 12:23:41;;;;;;;3.47;1.63;;;;;;;;;;5013815;28;20120;-62
2023/10/19 12:26:14;;;;;;;5.82;1.80;;;;;;;;;;5015346;28;20068;-62
2023/10/19 12:28:46;;;;;;;2.10;1.90;;;;;;;;;;5014228;28;20040;-62
2023/10/19 12:31:12;;;;;;;9.13;2.00;;;;;;;;;;5014224;28;20025;-67
2023/10/19 12:33:39;;;;;;;6.53;1.60;;;;;;;;;;5015663;28;20030;-62
2023/10/19 12:36:31;;;;;;;3.70;1.88;;;;;;;;;;5028013;28;20541;-62
2023/10/19 12:38:52;;;;;;;5.47;1.30;;;;;;;;;;5019219;28;20041;-63
2023/10/19 12:41:21;;;;;;;3.38;1.80;;;;;;;;;;5017235;28;20033;-62
2023/10/19 12:43:48;;;;;;;3.00;1.60;;;;;;;;;;5010297;28;20472;-63
2023/10/19 12:46:15;;;;;;;2.10;1.52;;;;;;;;;;5010273;28;20584;-62
2023/10/19 12:48:42;;;;;;;1.73;1.23;;;;;;;;;;5015043;28;20028;-64
2023/10/19 12:51:11;;;;;;;1.77;1.40;;;;;;;;;;5015197;28;20036;-63
2023/10/19 12:53:38;;;;;;;2.03;1.40;;;;;;;;;;5015230;28;20033;-62
2023/10/19 12:56:05;;;;;;;2.55;1.67;;;;;;;;;;5020446;28;20071;-63
2023/10/19 12:58:32;;;;;;;2.65;1.33;;;;;;;;;;5018888;28;20320;-63
2023/10/19 13:00:59;;;;;;;1.92;1.30;;;;;;;;;;5005663;28;20038;-63
2023/10/19 13:03:32;;;;;;;5.07;1.77;;;;;;;;;;5012992;28;20029;-64
2023/10/19 13:05:58;;;;;;;6.45;1.67;;;;;;;;;;5010858;28;20033;-63
2023/10/19 13:08:27;;;;;;;3.78;1.40;;;;;;;;;;5012840;28;20747;-63
2023/10/19 13:10:54;;;;;;;3.50;1.45;;;;;;;;;;5011307;28;20030;-62
2023/10/19 13:13:23;;;;;;;3.53;1.83;;;;;;;;;;5014865;28;20111;-63
2023/10/19 13:15:50;;;;;;;3.50;1.65;;;;;;;;;;5015612;28;20039;-63
2023/10/19 13:18:19;;;;;;;1.67;1.58;;;;;;;;;;5015603;28;20032;-63
2023/10/19 13:20:46;;;;;;;1.65;1.50;;;;;;;;;;5014163;28;20091;-67
2023/10/19 13:23:15;;;;;;;3.95;1.85;;;;;;;;;;5011276;28;20465;-62
2023/10/19 13:25:46;;;;;;;4.55;1.70;;;;;;;;;;5009559;28;20030;-63
2023/10/19 13:28:13;;;;;;;2.50;1.40;;;;;;;;;;5013253;28;20617;-62
2023/10/19 13:30:43;;;;;;;2.17;1.70;;;;;;;;;;5015010;28;20436;-62
2023/10/19 13:33:10;;;;;;;3.50;1.85;;;;;;;;;;5011287;28;20030;-62
2023/10/19 13:35:37;;;;;;;3.92;2.20;;;;;;;;;;5013891;28;20056;-62
2023/10/19 13:38:04;;;;;;;2.95;1.48;;;;;;;;;;5011710;28;20029;-62
2023/10/19 13:40:30;;;;;;;5.88;2.10;;;;;;;;;;5012358;28;20039;-62
2023/10/19 13:42:57;;;;;;;1.70;1.60;;;;;;;;;;5014581;28;20960;-61
2023/10/19 13:45:23;;;;;;;4.38;2.00;;;;;;;;;;5014745;28;20040;-65
2023/10/19 13:47:49;;;;;;;3.83;2.20;;;;;;;;;;5014061;28;20298;-63
2023/10/19 13:50:15;;;;;;;4.18;2.20;;;;;;;;;;5012884;28;20041;-63
2023/10/19 13:52:45;;;;;;;5.18;2.50;;;;;;;;;;5013734;28;20301;-63
2023/10/19 13:55:12;;;;;;;3.25;2.42;;;;;;;;;;5012349;28;20132;-61
2023/10/19 13:57:38;;;;;;;4.15;1.98;;;;;;;;;;5012367;28;20035;-61
2023/10/19 14:00:07;;;;;;;1.95;1.75;;;;;;;;;;5011023;28;20029;-62
2023/10/19 14:02:33;;;;;;;2.45;1.70;;;;;;;;;;5013448;28;20037;-62
2023/10/19 14:05:00;;;;;;;4.45;2.05;;;;;;;;;;5012055;28;20034;-62
2023/10/19 14:07:26;;;;;;;3.83;1.98;;;;;;;;;;5012810;28;20041;-61
2023/10/19 14:09:52;;;;;;;6.50;3.63;;;;;;;;;;5011861;28;20026;-63
2023/10/19 14:12:18;;;;;;;2.10;1.90;;;;;;;;;;5011452;28;20088;-61
2023/10/19 14:14:45;;;;;;;3.60;2.17;;;;;;;;;;5010575;28;20029;-62
2023/10/19 14:17:12;;;;;;;4.30;2.00;;;;;;;;;;5011216;28;20076;-62
2023/10/19 14:19:44;;;;;;;2.22;1.88;;;;;;;;;;5011900;28;20572;-61
2023/10/19 14:22:10;;;;;;;4.80;2.45;;;;;;;;;;5009140;28;20030;-62
2023/10/19 14:24:36;;;;;;;5.57;2.20;;;;;;;;;;5013058;28;20044;-62
2023/10/19 14:27:04;;;;;;;4.95;2.10;;;;;;;;;;5009379;28;20044;-62
2023/10/19 14:29:30;;;;;;;3.03;1.75;;;;;;;;;;5012590;28;20583;-63
2023/10/19 14:31:56;;;;;;;3.10;2.38;;;;;;;;;;5012910;28;20052;-63
2023/10/19 14:34:22;;;;;;;6.75;2.90;;;;;;;;;;5014589;28;20047;-63
2023/10/19 14:36:48;;;;;;;6.80;2.45;;;;;;;;;;5013611;28;20195;-62
2023/10/19 14:39:16;;;;;;;5.60;2.22;;;;;;;;;;5014842;28;20036;-63
2023/10/19 14:41:42;;;;;;;7.72;3.35;;;;;;;;;;5013806;28;20489;-63
2023/10/19 14:44:09;;;;;;;6.55;2.20;;;;;;;;;;5014718;28;20125;-62
2023/10/19 14:46:36;;;;;;;6.30;2.22;;;;;;;;;;5012173;28;20048;-62
2023/10/19 14:49:02;;;;;;;6.35;2.40;;;;;;;;;;5012741;28;20405;-63
2023/10/19 14:51:28;;;;;;;5.03;2.50;;;;;;;;;;5009021;28;20037;-62
2023/10/19 14:53:54;;;;;;;8.43;2.17;;;;;;;;;;5012835;28;20040;-63
2023/10/19 14:56:21;;;;;;;6.72;2.22;;;;;;;;;;5012796;28;20103;-63
2023/10/19 14:58:47;;;;;;;4.75;2.10;;;;;;;;;;5014714;28;20033;-63
2023/10/19 15:01:16;;;;;;;9.20;2.75;;;;;;;;;;5011849;28;20508;-63